Terminal Aerodrome Forecast
Issued by NWS

Home | Current Version | Previous Version | Text Only | Print | Product List | Glossary On
Versions: 1 2 3 4 5 6 7 8 9 10 11 12 13 14 15 16 17 18 19 20 21 22 23 24 25 26 27 28 29 30
894
FTUS43 KDMX 280539
TAFFOD
TAF
KFOD 280539Z 2806/2906 16011G16KT P6SM BKN040
     FM280700 16011G18KT P6SM VCTS SCT035 BKN050CB WS020/18040KT
      TEMPO 2808/2811 4SM -TSRA SCT020 OVC040CB
     FM281200 19015G23KT P6SM VCSH SCT020 OVC035 WS017/19040KT
     FM281400 21013G23KT P6SM BKN035
     FM282100 24013G21KT P6SM VCTS SCT035 BKN060CB
     FM290100 VRB04KT P6SM BKN060=

USA.gov is the U.S. government's official web portal to all federal, state and local government web resources and services.